createdAt,value
2019-06-27T07:53:42.846Z,99847.59
2019-06-27T07:56:11.426Z,99848.72
2019-06-27T07:58:39.930Z,99852.26
2019-06-27T08:01:08.423Z,99843.66
2019-06-27T08:03:36.899Z,99845.31
2019-06-27T08:06:05.396Z,99847.82
2019-06-27T08:08:33.854Z,99842.42
2019-06-27T08:11:02.430Z,99834.31
2019-06-27T08:13:30.927Z,99843.07
2019-06-27T08:15:59.398Z,99835.17
2019-06-27T08:18:28.493Z,99836.82
2019-06-27T08:20:57.069Z,99832.78
2019-06-27T08:23:40.609Z,99822.31
2019-06-27T08:25:55.932Z,99822.89
2019-06-27T08:28:24.412Z,99813.17
2019-06-27T08:30:52.874Z,99811.34
2019-06-27T08:33:21.355Z,99813.91
2019-06-27T08:35:49.918Z,99812.84
2019-06-27T08:38:18.330Z,99810.45
2019-06-27T08:40:46.957Z,99800.14
2019-06-27T08:43:15.433Z,99803.18
2019-06-27T08:45:44.119Z,99794.34
2019-06-27T08:48:12.620Z,99801.08
2019-06-27T08:50:41.201Z,99795.58
2019-06-27T08:53:09.591Z,99788.02
2019-06-27T08:55:37.954Z,99781.72
2019-06-27T08:58:06.532Z,99786.85
2019-06-27T09:00:35.199Z,99786.09
2019-06-27T09:03:04.590Z,99786.83
2019-06-27T09:05:33.874Z,99782.06
2019-06-27T09:08:04.706Z,99778.92
2019-06-27T09:10:33.274Z,99775.30
2019-06-27T09:13:01.862Z,99768.16
2019-06-27T09:15:30.543Z,99762.04
2019-06-27T09:17:59.112Z,99757.30
2019-06-27T09:20:27.477Z,99752.39
2019-06-27T09:22:56.065Z,99750.19
2019-06-27T09:25:24.713Z,99745.73
2019-06-27T09:27:53.275Z,99746.34
2019-06-27T09:30:22.056Z,99737.98
2019-06-27T09:32:50.552Z,99735.48
2019-06-27T09:35:19.033Z,99732.59
2019-06-27T09:37:47.560Z,99735.80
2019-06-27T09:40:16.303Z,99732.59
2019-06-27T09:42:44.777Z,99726.80
2019-06-27T09:45:13.980Z,99725.31
2019-06-27T09:47:42.549Z,99723.12
2019-06-27T09:50:11.043Z,99717.91
2019-06-27T09:52:39.643Z,99709.17
2019-06-27T09:55:09.125Z,99712.84
2019-06-27T09:57:37.641Z,99704.50
2019-06-27T10:00:06.367Z,99702.81
2019-06-27T10:02:41.444Z,99689.25
2019-06-27T10:05:05.605Z,99686.92
2019-06-27T10:07:34.074Z,99688.91
2019-06-27T10:10:03.222Z,99677.45
2019-06-27T10:12:41.653Z,99678.63
2019-06-27T10:15:02.290Z,99674.61
2019-06-27T10:17:31.053Z,99675.70
2019-06-27T10:19:59.641Z,99666.77
2019-06-27T10:22:28.213Z,99666.88
2019-06-27T10:24:56.792Z,99657.59
2019-06-27T10:27:25.455Z,99639.23
2019-06-27T10:29:53.929Z,99639.23
2019-06-27T10:32:22.306Z,99631.73
2019-06-27T10:34:50.787Z,99631.73
2019-06-27T10:37:19.268Z,99638.78
2019-06-27T10:39:47.691Z,99637.45
2019-06-27T10:42:16.202Z,99636.33
2019-06-27T10:44:44.789Z,99629.93
2019-06-27T10:47:13.269Z,99633.91
2019-06-27T10:49:41.683Z,99616.11
2019-06-27T10:52:10.270Z,99616.11
2019-06-27T10:54:38.778Z,99615.52
2019-06-27T10:57:07.339Z,99615.52
2019-06-27T10:59:35.797Z,99606.97
2019-06-27T11:02:05.020Z,99609.05
2019-06-27T11:04:33.495Z,99601.20
2019-06-27T11:07:01.897Z,99578.43
2019-06-27T11:09:30.526Z,99584.65
2019-06-27T11:11:58.955Z,99584.65
2019-06-27T11:14:27.416Z,99585.78
2019-06-27T11:16:56.037Z,99629.67
2019-06-27T11:19:24.482Z,99574.45
2019-06-27T11:21:53.150Z,99574.46
2019-06-27T11:24:21.644Z,99574.46
2019-06-27T11:26:50.025Z,99576.52
2019-06-27T11:29:18.570Z,99567.30
2019-06-27T11:31:47.258Z,99562.50
2019-06-27T11:34:19.083Z,99564.13
2019-06-27T11:36:46.722Z,99552.94
2019-06-27T11:39:15.328Z,99552.94
2019-06-27T11:41:43.836Z,99554.92
2019-06-27T11:44:12.418Z,99550.73
2019-06-27T11:46:40.900Z,99542.59
2019-06-27T11:49:09.364Z,99541.53
2019-06-27T11:51:37.869Z,99539.44
2019-06-27T11:54:06.454Z,99535.48
2019-06-27T11:56:35.057Z,99537.93
2019-06-27T11:59:03.620Z,99525.16
2019-06-27T12:01:32.201Z,99525.16
2019-06-27T12:04:00.653Z,99525.08
2019-06-27T12:06:29.166Z,99522.03
2019-06-27T12:08:57.654Z,99515.69
2019-06-27T12:11:26.245Z,99518.84
2019-06-27T12:13:54.683Z,99512.76
2019-06-27T12:16:23.136Z,99512.76
2019-06-27T12:18:51.630Z,99505.05
2019-06-27T12:21:20.177Z,99507.56
2019-06-27T12:23:48.666Z,99494.12
2019-06-27T12:26:17.242Z,99505.83
2019-06-27T12:28:46.125Z,99507.69
2019-06-27T12:31:20.344Z,99501.29
2019-06-27T12:33:45.077Z,99494.52
2019-06-27T12:36:13.550Z,99492.20
2019-06-27T12:38:42.043Z,99486.78
2019-06-27T12:41:10.506Z,99487.62
2019-06-27T12:43:38.980Z,99474.58
2019-06-27T12:46:07.604Z,99483.34
2019-06-27T12:48:37.193Z,99476.17
2019-06-27T12:51:05.742Z,99470.31
2019-06-27T12:53:34.435Z,99474.37
2019-06-27T12:56:02.909Z,99463.32
2019-06-27T12:58:31.421Z,99465.28
2019-06-27T13:00:59.887Z,99469.47
2019-06-27T13:03:28.481Z,99451.13
2019-06-27T13:05:57.057Z,99459.64
2019-06-27T13:08:25.640Z,99457.75
2019-06-27T13:10:54.008Z,99455.77
2019-06-27T13:13:22.490Z,99448.16
2019-06-27T13:15:51.083Z,99442.64
2019-06-27T13:18:19.673Z,99440.55
2019-06-27T13:20:57.938Z,99441.30
2019-06-27T13:23:18.693Z,99441.17
2019-06-27T13:25:47.331Z,99430.64
2019-06-27T13:28:15.852Z,99427.41
2019-06-27T13:30:44.354Z,99422.17
2019-06-27T13:33:12.842Z,99427.47
2019-06-27T13:35:41.616Z,99421.22
2019-06-27T13:38:10.284Z,99421.53
2019-06-27T13:40:38.657Z,99419.91
2019-06-27T13:43:07.318Z,99419.37
2019-06-27T13:45:35.765Z,99416.33
2019-06-27T13:48:04.253Z,99418.93
2019-06-27T13:50:33.365Z,99406.17
2019-06-27T13:53:01.978Z,99404.27
2019-06-27T13:55:30.781Z,99397.65
2019-06-27T13:57:59.274Z,99394.95
2019-06-27T14:00:36.881Z,99389.10
2019-06-27T14:03:05.846Z,99382.53
2019-06-27T14:05:34.441Z,99381.41
2019-06-27T14:08:03.159Z,99378.30
2019-06-27T14:10:31.725Z,99372.25
2019-06-27T14:13:00.414Z,99369.70
2019-06-27T14:15:29.098Z,99369.93
2019-06-27T14:17:57.689Z,99361.45
2019-06-27T14:20:26.155Z,99354.41
2019-06-27T14:22:54.936Z,99352.73
2019-06-27T14:25:23.529Z,99348.72
2019-06-27T14:27:52.187Z,99350.83
2019-06-27T14:30:20.791Z,99347.27
2019-06-27T14:32:53.153Z,99340.38
2019-06-27T14:35:20.042Z,99334.50
2019-06-27T14:37:48.741Z,99332.23
2019-06-27T14:40:17.801Z,99327.74
2019-06-27T14:42:46.372Z,99326.06
2019-06-27T14:45:14.963Z,99313.33
2019-06-27T14:47:43.652Z,99314.97
2019-06-27T14:50:12.476Z,99315.20
2019-06-27T14:52:41.033Z,99305.14
2019-06-27T14:55:10.013Z,99309.86
2019-06-27T14:57:38.822Z,99302.42
2019-06-27T15:00:09.731Z,99303.50
2019-06-27T15:02:38.173Z,99296.19
2019-06-27T15:05:08.063Z,99296.28
2019-06-27T15:07:36.550Z,99292.69
2019-06-27T15:10:06.364Z,99289.97
2019-06-27T15:12:35.919Z,99285.62
2019-06-27T15:15:05.795Z,99280.41
2019-06-27T15:17:34.261Z,99272.88
2019-06-27T15:20:02.949Z,99266.50
2019-06-27T15:22:31.460Z,99260.36
2019-06-27T15:25:00.028Z,99263.08
2019-06-27T15:27:28.769Z,99253.08
2019-06-27T15:29:57.763Z,99264.03
2019-06-27T15:32:26.394Z,99252.13
2019-06-27T15:34:55.072Z,99250.12
2019-06-27T15:37:23.667Z,99256.96
2019-06-27T15:39:52.262Z,99249.80
2019-06-27T15:42:20.813Z,99245.63
2019-06-27T15:44:49.444Z,99248.86
2019-06-27T15:47:18.478Z,99245.44
2019-06-27T15:49:47.432Z,99242.91
2019-06-27T15:52:15.939Z,99233.08
2019-06-27T15:54:44.548Z,99235.61
2019-06-27T15:57:13.172Z,99236.03
2019-06-27T15:59:41.555Z,99235.28
2019-06-27T16:02:10.127Z,99227.34
2019-06-27T16:04:38.615Z,99226.20
2019-06-27T16:07:07.261Z,99229.34
2019-06-27T16:09:35.753Z,99230.41
2019-06-27T16:12:04.231Z,99226.41
2019-06-27T16:14:32.588Z,99227.60
2019-06-27T16:17:01.048Z,99228.41
2019-06-27T16:19:29.622Z,99226.77
2019-06-27T16:21:58.104Z,99223.44
2019-06-27T16:24:26.694Z,99222.93
2019-06-27T16:26:55.258Z,99225.41
2019-06-27T16:29:23.834Z,99226.53
2019-06-27T16:31:52.393Z,99228.22
2019-06-27T16:34:20.965Z,99227.61
2019-06-27T16:36:49.444Z,99222.22
2019-06-27T16:39:17.957Z,99225.67
2019-06-27T16:41:46.641Z,99223.34
2019-06-27T16:44:15.231Z,99224.97
2019-06-27T16:46:44.116Z,99226.42
2019-06-27T16:49:12.618Z,99229.67
2019-06-27T16:51:41.091Z,99234.39
2019-06-27T16:54:10.065Z,99230.84
2019-06-27T16:56:38.656Z,99223.22
2019-06-27T16:59:07.149Z,99223.96
2019-06-27T17:01:35.814Z,99226.66
2019-06-27T17:04:04.377Z,99223.78
2019-06-27T17:06:42.256Z,99221.59
2019-06-27T17:09:04.298Z,99227.01
2019-06-27T17:11:32.977Z,99223.25
2019-06-27T17:14:01.636Z,99223.56
2019-06-27T17:16:30.122Z,99226.91
2019-06-27T17:18:58.604Z,99222.08
2019-06-27T17:21:27.281Z,99224.25
2019-06-27T17:23:55.963Z,99217.89
2019-06-27T17:26:24.537Z,99227.84
2019-06-27T17:28:52.997Z,99218.34
2019-06-27T17:31:21.575Z,99218.73
2019-06-27T17:33:49.946Z,99215.42
2019-06-27T17:36:18.413Z,99204.38
2019-06-27T17:38:46.877Z,99206.91
2019-06-27T17:41:15.338Z,99202.70
2019-06-27T17:43:43.805Z,99206.62
2019-06-27T17:46:12.406Z,99206.77
2019-06-27T17:48:40.788Z,99213.69
2019-06-27T17:51:09.175Z,99218.66
2019-06-27T17:53:37.638Z,99215.78
2019-06-27T17:56:06.009Z,99217.22
2019-06-27T17:58:34.589Z,99214.05
2019-06-27T18:01:03.284Z,99212.78
2019-06-27T18:03:31.813Z,99213.66
2019-06-27T18:06:00.490Z,99212.83
2019-06-27T18:08:29.168Z,99218.02
2019-06-27T18:10:57.673Z,99222.67
2019-06-27T18:13:26.454Z,99215.77
2019-06-27T18:15:55.038Z,99227.33
2019-06-27T18:18:23.432Z,99224.72
2019-06-27T18:20:52.008Z,99237.86
2019-06-27T18:23:20.614Z,99238.45
2019-06-27T18:25:49.306Z,99241.91
2019-06-27T18:28:17.989Z,99246.92
2019-06-27T18:30:46.682Z,99254.78
2019-06-27T18:33:15.263Z,99257.91
2019-06-27T18:35:43.652Z,99261.94
2019-06-27T18:38:12.305Z,99268.64
2019-06-27T18:40:40.870Z,99268.25
2019-06-27T18:43:09.446Z,99274.39
2019-06-27T18:45:38.022Z,99276.77
2019-06-27T18:48:12.383Z,99279.47
2019-06-27T18:50:45.743Z,99277.00
2019-06-27T18:53:14.329Z,99280.59
2019-06-27T18:55:42.749Z,99288.16
2019-06-27T18:58:11.348Z,99292.22
2019-06-27T19:00:39.913Z,99286.23
2019-06-27T19:03:08.405Z,99287.86
2019-06-27T19:05:36.803Z,99290.17
2019-06-27T19:08:05.275Z,99288.34
2019-06-27T19:10:34.045Z,99288.45
2019-06-27T19:13:02.529Z,99288.33
2019-06-27T19:15:31.105Z,99281.56
2019-06-27T19:17:59.584Z,99281.56
2019-06-27T19:20:37.022Z,99284.33
2019-06-27T19:23:25.061Z,99288.74
2019-06-27T19:25:56.016Z,99287.70
2019-06-27T19:28:24.391Z,99297.34
2019-06-27T19:30:52.967Z,99299.05
2019-06-27T19:33:21.456Z,99296.31
2019-06-27T19:35:49.939Z,99280.42
2019-06-27T19:38:18.436Z,99280.31
2019-06-27T19:40:46.992Z,99271.95
2019-06-27T19:43:27.020Z,99272.93
2019-06-27T19:45:45.867Z,99274.11
2019-06-27T19:48:14.273Z,99273.15
2019-06-27T19:50:42.958Z,99278.98
2019-06-27T19:53:11.845Z,99276.53
2019-06-27T19:55:40.425Z,99275.91
2019-06-27T19:58:09.147Z,99284.66
2019-06-27T20:00:37.711Z,99279.73
2019-06-27T20:03:06.098Z,99286.11
2019-06-27T20:05:34.802Z,99282.88
2019-06-27T20:08:17.767Z,99282.16
2019-06-27T20:10:33.676Z,99288.72
2019-06-27T20:13:02.292Z,99287.33
2019-06-27T20:15:30.887Z,99283.87
2019-06-27T20:18:00.594Z,99279.30
2019-06-27T20:20:29.177Z,99293.88
2019-06-27T20:22:57.750Z,99288.78
2019-06-27T20:25:26.230Z,99294.29
2019-06-27T20:27:54.733Z,99289.52
2019-06-27T20:30:23.214Z,99294.67
2019-06-27T20:32:51.694Z,99288.34
2019-06-27T20:35:20.363Z,99297.92
2019-06-27T20:37:49.345Z,99301.05
2019-06-27T20:40:18.651Z,99295.39
2019-06-27T20:43:06.791Z,99295.39
2019-06-27T20:45:35.374Z,99281.27
2019-06-27T20:48:04.018Z,99287.58
2019-06-27T20:50:32.465Z,99293.81
2019-06-27T20:53:01.073Z,99293.81
2019-06-27T20:55:29.673Z,99289.50
2019-06-27T20:57:58.259Z,99297.23
2019-06-27T21:00:26.930Z,99293.59
2019-06-27T21:02:55.627Z,99298.16
2019-06-27T21:05:24.092Z,99298.16
2019-06-27T21:07:52.577Z,99286.58
2019-06-27T21:10:21.145Z,99289.38
2019-06-27T21:12:49.707Z,99295.93
2019-06-27T21:15:18.595Z,99284.23
2019-06-27T21:17:47.085Z,99284.23
2019-06-27T21:20:16.056Z,99286.58
2019-06-27T21:22:46.091Z,99287.75
2019-06-27T21:25:16.546Z,99280.75
2019-06-27T21:27:45.523Z,99280.75
2019-06-27T21:30:16.122Z,99289.00
2019-06-27T21:32:48.122Z,99282.80
2019-06-27T21:35:14.868Z,99289.23
2019-06-27T21:37:43.347Z,99286.34
2019-06-27T21:40:12.134Z,99284.40
2019-06-27T21:42:40.722Z,99281.70
2019-06-27T21:45:09.697Z,99279.16
2019-06-27T21:47:38.273Z,99282.39
2019-06-27T21:50:07.055Z,99287.94
2019-06-27T21:52:35.525Z,99285.27
2019-06-27T21:55:04.145Z,99289.16
2019-06-27T21:57:32.662Z,99287.39
2019-06-27T22:00:01.285Z,99289.77
2019-06-27T22:02:29.853Z,99286.73
2019-06-27T22:04:58.317Z,99285.59
2019-06-27T22:07:26.889Z,99289.34
2019-06-27T22:09:55.446Z,99293.23
2019-06-27T22:12:24.018Z,99285.44
2019-06-27T22:14:52.503Z,99289.79
2019-06-27T22:17:21.073Z,99280.33
2019-06-27T22:19:49.557Z,99281.05
2019-06-27T22:22:18.019Z,99278.03
2019-06-27T22:24:46.481Z,99270.31
2019-06-27T22:27:14.862Z,99269.69
2019-06-27T22:29:43.325Z,99264.74
2019-06-27T22:32:11.981Z,99260.56
2019-06-27T22:34:40.646Z,99250.19
2019-06-27T22:37:09.310Z,99242.65
2019-06-27T22:39:55.907Z,99242.44
2019-06-27T22:42:42.491Z,99240.23
2019-06-27T22:45:29.729Z,99234.80
2019-06-27T22:48:13.399Z,99237.66
2019-06-27T22:51:01.912Z,99234.36
2019-06-27T22:53:35.041Z,99231.45
2019-06-27T22:56:03.692Z,99238.67
2019-06-27T22:58:32.067Z,99233.98
2019-06-27T23:01:01.316Z,99231.51
2019-06-27T23:03:29.903Z,99231.33
2019-06-27T23:05:58.362Z,99235.73
2019-06-27T23:08:26.737Z,99231.03
2019-06-27T23:10:55.198Z,99225.97
2019-06-27T23:13:23.782Z,99227.52
2019-06-27T23:15:52.252Z,99227.03
2019-06-27T23:18:20.728Z,99232.74
2019-06-27T23:20:49.205Z,99225.88
2019-06-27T23:23:17.674Z,99225.86
2019-06-27T23:25:46.047Z,99216.76
2019-06-27T23:28:14.643Z,99212.09
2019-06-27T23:30:43.908Z,99204.73
2019-06-27T23:33:12.524Z,99206.04
2019-06-27T23:35:41.061Z,99214.76
2019-06-27T23:38:09.537Z,99215.31
2019-06-27T23:40:38.006Z,99204.75
2019-06-27T23:43:06.479Z,99210.59
2019-06-27T23:45:35.081Z,99207.77
2019-06-27T23:48:03.555Z,99206.39
2019-06-27T23:50:32.117Z,99204.23
2019-06-27T23:53:00.495Z,99202.22
2019-06-27T23:55:28.944Z,99200.73
2019-06-27T23:57:57.339Z,99200.37
